sensor_id;sensor_type;location;lat;lon;timestamp;temperature;humidity
70089;HTU21D;57460;47.134;19.888;2023-07-20T00:01:45;24.58;62.03
70089;HTU21D;57460;47.134;19.888;2023-07-20T00:04:12;24.57;61.98
70089;HTU21D;57460;47.134;19.888;2023-07-20T00:06:38;24.53;61.22
70089;HTU21D;57460;47.134;19.888;2023-07-20T00:09:08;24.50;60.93
70089;HTU21D;57460;47.134;19.888;2023-07-20T00:11:37;24.48;60.70
70089;HTU21D;57460;47.134;19.888;2023-07-20T00:14:06;24.38;63.42
70089;HTU21D;57460;47.134;19.888;2023-07-20T00:16:32;24.30;62.76
70089;HTU21D;57460;47.134;19.888;2023-07-20T00:18:58;24.29;61.05
70089;HTU21D;57460;47.134;19.888;2023-07-20T00:21:25;24.29;61.56
70089;HTU21D;57460;47.134;19.888;2023-07-20T00:23:51;24.25;62.47
70089;HTU21D;57460;47.134;19.888;2023-07-20T00:26:16;24.23;61.73
70089;HTU21D;57460;47.134;19.888;2023-07-20T00:28:43;24.20;61.57
70089;HTU21D;57460;47.134;19.888;2023-07-20T00:31:08;24.17;63.10
70089;HTU21D;57460;47.134;19.888;2023-07-20T00:33:34;24.11;62.75
70089;HTU21D;57460;47.134;19.888;2023-07-20T00:36:00;24.06;62.43
70089;HTU21D;57460;47.134;19.888;2023-07-20T00:38:26;24.00;62.12
70089;HTU21D;57460;47.134;19.888;2023-07-20T00:40:51;23.87;65.32
70089;HTU21D;57460;47.134;19.888;2023-07-20T00:43:17;23.80;62.01
70089;HTU21D;57460;47.134;19.888;2023-07-20T00:45:44;23.76;62.48
70089;HTU21D;57460;47.134;19.888;2023-07-20T00:48:10;23.72;62.94
70089;HTU21D;57460;47.134;19.888;2023-07-20T00:50:37;23.72;62.44
70089;HTU21D;57460;47.134;19.888;2023-07-20T00:53:04;23.68;64.14
70089;HTU21D;57460;47.134;19.888;2023-07-20T00:55:34;23.65;63.22
70089;HTU21D;57460;47.134;19.888;2023-07-20T00:58:00;23.62;64.11
70089;HTU21D;57460;47.134;19.888;2023-07-20T01:00:26;23.61;62.95
70089;HTU21D;57460;47.134;19.888;2023-07-20T01:02:53;23.56;62.62
70089;HTU21D;57460;47.134;19.888;2023-07-20T01:05:19;23.45;62.91
70089;HTU21D;57460;47.134;19.888;2023-07-20T01:07:52;23.34;62.81
70089;HTU21D;57460;47.134;19.888;2023-07-20T01:10:27;23.32;63.60
70089;HTU21D;57460;47.134;19.888;2023-07-20T01:12:55;23.30;65.15
70089;HTU21D;57460;47.134;19.888;2023-07-20T01:15:22;23.12;63.98
70089;HTU21D;57460;47.134;19.888;2023-07-20T01:17:47;22.90;68.84
70089;HTU21D;57460;47.134;19.888;2023-07-20T01:20:18;22.77;67.19
70089;HTU21D;57460;47.134;19.888;2023-07-20T01:31:39;22.48;71.13
70089;HTU21D;57460;47.134;19.888;2023-07-20T01:34:09;22.29;69.41
70089;HTU21D;57460;47.134;19.888;2023-07-20T01:36:38;22.29;68.47
70089;HTU21D;57460;47.134;19.888;2023-07-20T01:39:06;22.24;72.55
70089;HTU21D;57460;47.134;19.888;2023-07-20T01:41:33;22.09;73.45
70089;HTU21D;57460;47.134;19.888;2023-07-20T01:43:59;22.11;70.74
70089;HTU21D;57460;47.134;19.888;2023-07-20T01:46:25;22.12;72.90
70089;HTU21D;57460;47.134;19.888;2023-07-20T01:48:52;22.10;72.30
70089;HTU21D;57460;47.134;19.888;2023-07-20T01:51:21;22.13;72.64
70089;HTU21D;57460;47.134;19.888;2023-07-20T01:53:47;22.11;70.95
70089;HTU21D;57460;47.134;19.888;2023-07-20T01:56:14;22.11;73.80
70089;HTU21D;57460;47.134;19.888;2023-07-20T01:58:40;22.14;73.46
70089;HTU21D;57460;47.134;19.888;2023-07-20T02:01:06;22.19;71.19
70089;HTU21D;57460;47.134;19.888;2023-07-20T02:03:32;22.21;72.84
70089;HTU21D;57460;47.134;19.888;2023-07-20T02:05:58;22.22;70.29
70089;HTU21D;57460;47.134;19.888;2023-07-20T02:08:24;22.20;70.62
70089;HTU21D;57460;47.134;19.888;2023-07-20T02:10:51;22.19;67.37
70089;HTU21D;57460;47.134;19.888;2023-07-20T02:13:17;22.17;73.61
70089;HTU21D;57460;47.134;19.888;2023-07-20T02:15:43;22.16;72.47
70089;HTU21D;57460;47.134;19.888;2023-07-20T02:18:13;22.13;71.84
70089;HTU21D;57460;47.134;19.888;2023-07-20T02:20:41;22.08;71.01
70089;HTU21D;57460;47.134;19.888;2023-07-20T02:23:10;22.07;72.13
70089;HTU21D;57460;47.134;19.888;2023-07-20T02:25:36;22.01;73.90
70089;HTU21D;57460;47.134;19.888;2023-07-20T02:28:04;21.99;72.25
70089;HTU21D;57460;47.134;19.888;2023-07-20T02:30:29;22.01;73.59
70089;HTU21D;57460;47.134;19.888;2023-07-20T02:32:55;22.03;74.48
70089;HTU21D;57460;47.134;19.888;2023-07-20T02:35:24;22.06;74.02
70089;HTU21D;57460;47.134;19.888;2023-07-20T02:37:49;22.08;73.89
70089;HTU21D;57460;47.134;19.888;2023-07-20T02:40:15;22.09;73.89
70089;HTU21D;57460;47.134;19.888;2023-07-20T02:42:41;22.12;72.57
70089;HTU21D;57460;47.134;19.888;2023-07-20T02:45:07;22.17;73.45
70089;HTU21D;57460;47.134;19.888;2023-07-20T02:47:33;22.17;73.55
70089;HTU21D;57460;47.134;19.888;2023-07-20T02:49:59;22.20;72.18
70089;HTU21D;57460;47.134;19.888;2023-07-20T02:52:25;22.22;72.22
70089;HTU21D;57460;47.134;19.888;2023-07-20T02:54:51;22.27;72.43
70089;HTU21D;57460;47.134;19.888;2023-07-20T02:57:17;22.31;72.67
70089;HTU21D;57460;47.134;19.888;2023-07-20T02:59:43;22.33;71.70
70089;HTU21D;57460;47.134;19.888;2023-07-20T03:02:09;22.31;72.54
70089;HTU21D;57460;47.134;19.888;2023-07-20T03:04:35;22.33;70.90
70089;HTU21D;57460;47.134;19.888;2023-07-20T03:07:04;22.32;72.03
70089;HTU21D;57460;47.134;19.888;2023-07-20T03:09:30;22.34;70.98
70089;HTU21D;57460;47.134;19.888;2023-07-20T03:11:55;22.34;70.79
70089;HTU21D;57460;47.134;19.888;2023-07-20T03:14:21;22.29;72.18
70089;HTU21D;57460;47.134;19.888;2023-07-20T03:16:49;22.31;69.51
70089;HTU21D;57460;47.134;19.888;2023-07-20T03:19:15;22.26;73.22
70089;HTU21D;57460;47.134;19.888;2023-07-20T03:21:41;22.25;72.77
70089;HTU21D;57460;47.134;19.888;2023-07-20T03:24:08;22.23;73.28
70089;HTU21D;57460;47.134;19.888;2023-07-20T03:26:34;22.26;73.20
70089;HTU21D;57460;47.134;19.888;2023-07-20T03:29:00;22.27;73.48
70089;HTU21D;57460;47.134;19.888;2023-07-20T03:31:26;22.28;71.96
70089;HTU21D;57460;47.134;19.888;2023-07-20T03:33:52;22.29;72.16
70089;HTU21D;57460;47.134;19.888;2023-07-20T03:36:17;22.32;72.97
70089;HTU21D;57460;47.134;19.888;2023-07-20T03:38:43;22.29;73.71
70089;HTU21D;57460;47.134;19.888;2023-07-20T03:41:09;22.32;72.81
70089;HTU21D;57460;47.134;19.888;2023-07-20T03:43:37;22.26;73.43
70089;HTU21D;57460;47.134;19.888;2023-07-20T03:46:03;22.25;72.90
70089;HTU21D;57460;47.134;19.888;2023-07-20T03:48:33;22.25;71.43
70089;HTU21D;57460;47.134;19.888;2023-07-20T03:50:59;22.28;73.85
70089;HTU21D;57460;47.134;19.888;2023-07-20T03:53:25;22.37;73.39
70089;HTU21D;57460;47.134;19.888;2023-07-20T03:55:54;22.37;73.63
70089;HTU21D;57460;47.134;19.888;2023-07-20T03:58:21;22.34;73.90
70089;HTU21D;57460;47.134;19.888;2023-07-20T04:00:49;22.32;74.20
70089;HTU21D;57460;47.134;19.888;2023-07-20T04:03:21;22.31;74.12
70089;HTU21D;57460;47.134;19.888;2023-07-20T04:05:50;22.40;72.12
70089;HTU21D;57460;47.134;19.888;2023-07-20T04:08:15;22.50;73.48
70089;HTU21D;57460;47.134;19.888;2023-07-20T04:10:44;22.58;73.21
70089;HTU21D;57460;47.134;19.888;2023-07-20T04:13:11;22.63;72.86
70089;HTU21D;57460;47.134;19.888;2023-07-20T04:15:37;22.69;71.48
70089;HTU21D;57460;47.134;19.888;2023-07-20T04:18:02;22.69;72.06
70089;HTU21D;57460;47.134;19.888;2023-07-20T04:20:28;22.76;70.49
70089;HTU21D;57460;47.134;19.888;2023-07-20T04:22:54;22.72;72.13
70089;HTU21D;57460;47.134;19.888;2023-07-20T04:25:19;22.75;72.58
70089;HTU21D;57460;47.134;19.888;2023-07-20T04:27:45;22.81;71.62
70089;HTU21D;57460;47.134;19.888;2023-07-20T04:30:12;22.83;72.07
70089;HTU21D;57460;47.134;19.888;2023-07-20T04:32:38;22.85;71.17
70089;HTU21D;57460;47.134;19.888;2023-07-20T04:35:11;22.88;70.63
70089;HTU21D;57460;47.134;19.888;2023-07-20T04:37:36;22.93;71.84
70089;HTU21D;57460;47.134;19.888;2023-07-20T04:40:02;23.02;71.78
70089;HTU21D;57460;47.134;19.888;2023-07-20T04:42:29;23.10;70.55
70089;HTU21D;57460;47.134;19.888;2023-07-20T04:44:54;23.16;70.69
70089;HTU21D;57460;47.134;19.888;2023-07-20T04:47:20;23.09;71.05
70089;HTU21D;57460;47.134;19.888;2023-07-20T04:49:46;23.23;69.48
70089;HTU21D;57460;47.134;19.888;2023-07-20T04:52:11;23.28;68.75
70089;HTU21D;57460;47.134;19.888;2023-07-20T04:54:37;23.35;67.86
70089;HTU21D;57460;47.134;19.888;2023-07-20T04:57:03;23.51;67.39
70089;HTU21D;57460;47.134;19.888;2023-07-20T04:59:28;23.56;69.16
70089;HTU21D;57460;47.134;19.888;2023-07-20T05:01:54;23.61;69.03
70089;HTU21D;57460;47.134;19.888;2023-07-20T05:04:20;23.68;68.07
70089;HTU21D;57460;47.134;19.888;2023-07-20T05:06:46;23.74;68.85
70089;HTU21D;57460;47.134;19.888;2023-07-20T05:09:11;23.81;67.75
70089;HTU21D;57460;47.134;19.888;2023-07-20T05:11:37;23.87;67.79
70089;HTU21D;57460;47.134;19.888;2023-07-20T05:14:03;23.91;67.58
70089;HTU21D;57460;47.134;19.888;2023-07-20T05:16:28;23.97;67.38
70089;HTU21D;57460;47.134;19.888;2023-07-20T05:18:54;23.88;67.41
70089;HTU21D;57460;47.134;19.888;2023-07-20T05:21:20;23.98;67.16
70089;HTU21D;57460;47.134;19.888;2023-07-20T05:23:45;24.06;66.91
70089;HTU21D;57460;47.134;19.888;2023-07-20T05:26:11;24.20;66.15
70089;HTU21D;57460;47.134;19.888;2023-07-20T05:28:37;24.19;66.17
70089;HTU21D;57460;47.134;19.888;2023-07-20T05:31:03;24.24;66.69
70089;HTU21D;57460;47.134;19.888;2023-07-20T05:33:29;24.26;65.76
70089;HTU21D;57460;47.134;19.888;2023-07-20T05:35:54;24.38;65.62
70089;HTU21D;57460;47.134;19.888;2023-07-20T05:38:20;24.48;65.03
70089;HTU21D;57460;47.134;19.888;2023-07-20T05:40:46;24.56;65.37
70089;HTU21D;57460;47.134;19.888;2023-07-20T05:43:12;24.73;63.82
70089;HTU21D;57460;47.134;19.888;2023-07-20T05:45:41;24.80;64.36
70089;HTU21D;57460;47.134;19.888;2023-07-20T05:48:08;24.93;63.74
70089;HTU21D;57460;47.134;19.888;2023-07-20T05:50:42;25.03;63.38
70089;HTU21D;57460;47.134;19.888;2023-07-20T05:53:09;25.14;62.98
70089;HTU21D;57460;47.134;19.888;2023-07-20T05:55:34;25.22;62.80
70089;HTU21D;57460;47.134;19.888;2023-07-20T05:58:00;25.31;62.17
70089;HTU21D;57460;47.134;19.888;2023-07-20T06:00:26;25.40;62.77
70089;HTU21D;57460;47.134;19.888;2023-07-20T06:02:53;25.54;62.21
70089;HTU21D;57460;47.134;19.888;2023-07-20T06:05:21;25.56;61.79
70089;HTU21D;57460;47.134;19.888;2023-07-20T06:07:47;25.59;61.57
70089;HTU21D;57460;47.134;19.888;2023-07-20T06:10:13;25.64;61.49
70089;HTU21D;57460;47.134;19.888;2023-07-20T06:12:38;25.67;60.08
70089;HTU21D;57460;47.134;19.888;2023-07-20T06:15:05;25.76;61.06
70089;HTU21D;57460;47.134;19.888;2023-07-20T06:17:32;25.94;60.75
70089;HTU21D;57460;47.134;19.888;2023-07-20T06:19:58;26.04;59.86
70089;HTU21D;57460;47.134;19.888;2023-07-20T06:22:24;26.19;59.71
70089;HTU21D;57460;47.134;19.888;2023-07-20T06:24:49;26.30;59.52
70089;HTU21D;57460;47.134;19.888;2023-07-20T06:27:15;26.41;59.02
70089;HTU21D;57460;47.134;19.888;2023-07-20T06:29:41;26.55;59.29
70089;HTU21D;57460;47.134;19.888;2023-07-20T06:32:07;26.71;56.75
70089;HTU21D;57460;47.134;19.888;2023-07-20T06:34:33;26.72;57.65
70089;HTU21D;57460;47.134;19.888;2023-07-20T06:37:03;26.78;57.94
70089;HTU21D;57460;47.134;19.888;2023-07-20T06:39:29;26.84;57.29
70089;HTU21D;57460;47.134;19.888;2023-07-20T06:41:55;26.99;57.85
70089;HTU21D;57460;47.134;19.888;2023-07-20T06:44:21;27.06;56.42
70089;HTU21D;57460;47.134;19.888;2023-07-20T06:46:47;27.13;56.29
70089;HTU21D;57460;47.134;19.888;2023-07-20T06:49:27;27.23;56.31
70089;HTU21D;57460;47.134;19.888;2023-07-20T06:51:53;27.29;56.00
70089;HTU21D;57460;47.134;19.888;2023-07-20T06:54:19;27.36;54.86
70089;HTU21D;57460;47.134;19.888;2023-07-20T06:56:45;27.43;55.49
70089;HTU21D;57460;47.134;19.888;2023-07-20T06:59:11;27.56;56.46
70089;HTU21D;57460;47.134;19.888;2023-07-20T07:01:36;27.75;53.30
70089;HTU21D;57460;47.134;19.888;2023-07-20T07:04:05;27.98;55.12
70089;HTU21D;57460;47.134;19.888;2023-07-20T07:06:31;28.20;54.07
70089;HTU21D;57460;47.134;19.888;2023-07-20T07:08:58;28.43;52.92
70089;HTU21D;57460;47.134;19.888;2023-07-20T07:11:24;28.47;49.29
70089;HTU21D;57460;47.134;19.888;2023-07-20T07:13:50;28.61;52.20
70089;HTU21D;57460;47.134;19.888;2023-07-20T07:16:17;28.84;52.77
70089;HTU21D;57460;47.134;19.888;2023-07-20T07:18:45;29.03;47.60
70089;HTU21D;57460;47.134;19.888;2023-07-20T07:21:11;29.22;49.92
70089;HTU21D;57460;47.134;19.888;2023-07-20T07:23:38;29.39;50.11
70089;HTU21D;57460;47.134;19.888;2023-07-20T07:26:04;29.49;48.66
70089;HTU21D;57460;47.134;19.888;2023-07-20T07:28:33;29.59;48.46
70089;HTU21D;57460;47.134;19.888;2023-07-20T07:30:59;29.88;47.87
70089;HTU21D;57460;47.134;19.888;2023-07-20T07:33:24;29.92;44.68
70089;HTU21D;57460;47.134;19.888;2023-07-20T07:35:53;30.02;43.91
70089;HTU21D;57460;47.134;19.888;2023-07-20T07:38:19;29.91;42.45
70089;HTU21D;57460;47.134;19.888;2023-07-20T07:40:46;30.08;45.22
70089;HTU21D;57460;47.134;19.888;2023-07-20T07:43:12;30.12;43.92
70089;HTU21D;57460;47.134;19.888;2023-07-20T07:45:42;30.17;44.07
70089;HTU21D;57460;47.134;19.888;2023-07-20T07:48:08;30.45;43.89
70089;HTU21D;57460;47.134;19.888;2023-07-20T07:50:37;30.68;43.16
70089;HTU21D;57460;47.134;19.888;2023-07-20T07:53:03;30.89;43.54
70089;HTU21D;57460;47.134;19.888;2023-07-20T07:55:29;31.08;43.06
70089;HTU21D;57460;47.134;19.888;2023-07-20T07:57:55;31.35;42.88
70089;HTU21D;57460;47.134;19.888;2023-07-20T08:00:20;31.56;42.03
70089;HTU21D;57460;47.134;19.888;2023-07-20T08:02:47;31.45;40.08
70089;HTU21D;57460;47.134;19.888;2023-07-20T08:05:14;31.42;41.03
70089;HTU21D;57460;47.134;19.888;2023-07-20T08:07:40;31.31;38.72
70089;HTU21D;57460;47.134;19.888;2023-07-20T08:10:06;31.25;41.19
70089;HTU21D;57460;47.134;19.888;2023-07-20T08:12:32;31.25;41.20
70089;HTU21D;57460;47.134;19.888;2023-07-20T08:14:58;31.38;40.73
70089;HTU21D;57460;47.134;19.888;2023-07-20T08:17:24;31.49;41.63
70089;HTU21D;57460;47.134;19.888;2023-07-20T08:19:50;31.70;41.49
70089;HTU21D;57460;47.134;19.888;2023-07-20T08:22:15;31.81;38.12
70089;HTU21D;57460;47.134;19.888;2023-07-20T08:24:42;32.04;40.33
70089;HTU21D;57460;47.134;19.888;2023-07-20T08:27:09;31.81;37.01
70089;HTU21D;57460;47.134;19.888;2023-07-20T08:29:38;31.61;39.36
70089;HTU21D;57460;47.134;19.888;2023-07-20T08:32:05;31.30;38.46
70089;HTU21D;57460;47.134;19.888;2023-07-20T08:34:31;31.41;38.83
70089;HTU21D;57460;47.134;19.888;2023-07-20T08:36:58;31.64;40.85
70089;HTU21D;57460;47.134;19.888;2023-07-20T08:39:24;31.86;40.41
70089;HTU21D;57460;47.134;19.888;2023-07-20T08:41:51;31.99;39.08
70089;HTU21D;57460;47.134;19.888;2023-07-20T08:44:20;32.34;39.29
70089;HTU21D;57460;47.134;19.888;2023-07-20T08:46:47;32.68;38.94
70089;HTU21D;57460;47.134;19.888;2023-07-20T08:49:17;33.05;37.11
70089;HTU21D;57460;47.134;19.888;2023-07-20T08:51:46;33.08;30.08
70089;HTU21D;57460;47.134;19.888;2023-07-20T08:54:13;32.94;32.59
70089;HTU21D;57460;47.134;19.888;2023-07-20T08:56:41;33.03;30.83
70089;HTU21D;57460;47.134;19.888;2023-07-20T08:59:08;33.03;32.48
70089;HTU21D;57460;47.134;19.888;2023-07-20T09:01:36;33.17;33.96
70089;HTU21D;57460;47.134;19.888;2023-07-20T09:04:04;33.33;31.99
70089;HTU21D;57460;47.134;19.888;2023-07-20T09:06:30;33.56;33.01
70089;HTU21D;57460;47.134;19.888;2023-07-20T09:08:56;33.53;30.42
70089;HTU21D;57460;47.134;19.888;2023-07-20T09:11:22;33.66;32.56
70089;HTU21D;57460;47.134;19.888;2023-07-20T09:13:48;33.76;30.71
70089;HTU21D;57460;47.134;19.888;2023-07-20T09:16:28;33.87;30.28
70089;HTU21D;57460;47.134;19.888;2023-07-20T09:18:58;33.95;30.70
70089;HTU21D;57460;47.134;19.888;2023-07-20T09:21:29;33.80;28.07
70089;HTU21D;57460;47.134;19.888;2023-07-20T09:23:59;33.79;30.43
70089;HTU21D;57460;47.134;19.888;2023-07-20T09:26:25;33.90;29.51
70089;HTU21D;57460;47.134;19.888;2023-07-20T09:28:54;34.00;29.55
70089;HTU21D;57460;47.134;19.888;2023-07-20T09:31:22;33.94;29.84
70089;HTU21D;57460;47.134;19.888;2023-07-20T09:33:52;34.20;29.51
70089;HTU21D;57460;47.134;19.888;2023-07-20T09:36:21;34.29;28.58
70089;HTU21D;57460;47.134;19.888;2023-07-20T09:38:47;34.31;26.73
70089;HTU21D;57460;47.134;19.888;2023-07-20T09:41:14;34.54;28.63
70089;HTU21D;57460;47.134;19.888;2023-07-20T09:43:45;34.73;28.68
70089;HTU21D;57460;47.134;19.888;2023-07-20T09:46:11;34.80;28.86
70089;HTU21D;57460;47.134;19.888;2023-07-20T09:48:37;34.82;28.74
70089;HTU21D;57460;47.134;19.888;2023-07-20T09:51:04;34.98;27.97
70089;HTU21D;57460;47.134;19.888;2023-07-20T09:53:33;34.89;26.89
70089;HTU21D;57460;47.134;19.888;2023-07-20T09:56:00;34.83;28.23
70089;HTU21D;57460;47.134;19.888;2023-07-20T09:58:26;34.99;27.23
70089;HTU21D;57460;47.134;19.888;2023-07-20T10:00:57;34.99;27.53
70089;HTU21D;57460;47.134;19.888;2023-07-20T10:03:29;35.18;27.18
70089;HTU21D;57460;47.134;19.888;2023-07-20T10:06:17;35.22;25.97
70089;HTU21D;57460;47.134;19.888;2023-07-20T10:08:47;34.99;24.28
70089;HTU21D;57460;47.134;19.888;2023-07-20T10:11:16;35.00;26.84
70089;HTU21D;57460;47.134;19.888;2023-07-20T10:13:44;35.21;26.70
70089;HTU21D;57460;47.134;19.888;2023-07-20T10:16:17;35.31;26.74
70089;HTU21D;57460;47.134;19.888;2023-07-20T10:18:51;35.30;26.27
70089;HTU21D;57460;47.134;19.888;2023-07-20T10:21:21;35.37;26.79
70089;HTU21D;57460;47.134;19.888;2023-07-20T10:23:50;35.31;24.16
70089;HTU21D;57460;47.134;19.888;2023-07-20T10:26:15;35.29;26.68
70089;HTU21D;57460;47.134;19.888;2023-07-20T10:28:41;35.23;23.74
70089;HTU21D;57460;47.134;19.888;2023-07-20T10:31:09;35.23;21.89
70089;HTU21D;57460;47.134;19.888;2023-07-20T10:33:37;35.14;24.88
70089;HTU21D;57460;47.134;19.888;2023-07-20T10:36:05;34.97;21.82
70089;HTU21D;57460;47.134;19.888;2023-07-20T10:38:53;34.95;25.14
70089;HTU21D;57460;47.134;19.888;2023-07-20T10:41:22;35.16;24.40
70089;HTU21D;57460;47.134;19.888;2023-07-20T10:43:55;35.41;24.35
70089;HTU21D;57460;47.134;19.888;2023-07-20T10:49:06;35.51;23.22
70089;HTU21D;57460;47.134;19.888;2023-07-20T10:51:55;35.47;23.21
70089;HTU21D;57460;47.134;19.888;2023-07-20T10:56:47;35.27;22.99
70089;HTU21D;57460;47.134;19.888;2023-07-20T10:59:36;35.37;23.40
70089;HTU21D;57460;47.134;19.888;2023-07-20T11:02:08;35.39;25.12
70089;HTU21D;57460;47.134;19.888;2023-07-20T11:04:41;35.13;23.66
70089;HTU21D;57460;47.134;19.888;2023-07-20T11:07:08;35.34;23.85
70089;HTU21D;57460;47.134;19.888;2023-07-20T11:09:34;35.30;23.89
70089;HTU21D;57460;47.134;19.888;2023-07-20T11:14:53;35.53;23.85
70089;HTU21D;57460;47.134;19.888;2023-07-20T11:17:29;35.50;20.87
70089;HTU21D;57460;47.134;19.888;2023-07-20T11:19:56;35.54;22.62
70089;HTU21D;57460;47.134;19.888;2023-07-20T11:22:22;35.77;23.95
70089;HTU21D;57460;47.134;19.888;2023-07-20T11:24:48;35.93;23.29
70089;HTU21D;57460;47.134;19.888;2023-07-20T11:27:15;36.02;24.66
70089;HTU21D;57460;47.134;19.888;2023-07-20T11:29:45;36.09;24.12
70089;HTU21D;57460;47.134;19.888;2023-07-20T11:32:11;36.19;23.87
70089;HTU21D;57460;47.134;19.888;2023-07-20T11:34:37;36.09;23.72
70089;HTU21D;57460;47.134;19.888;2023-07-20T11:37:03;36.10;24.43
70089;HTU21D;57460;47.134;19.888;2023-07-20T11:39:29;36.31;23.08
70089;HTU21D;57460;47.134;19.888;2023-07-20T11:41:56;36.12;23.19
70089;HTU21D;57460;47.134;19.888;2023-07-20T11:44:25;36.02;23.55
70089;HTU21D;57460;47.134;19.888;2023-07-20T11:49:38;35.60;23.49
70089;HTU21D;57460;47.134;19.888;2023-07-20T11:52:13;35.51;24.64
70089;HTU21D;57460;47.134;19.888;2023-07-20T11:54:42;35.99;23.51
70089;HTU21D;57460;47.134;19.888;2023-07-20T11:57:16;36.10;23.41
70089;HTU21D;57460;47.134;19.888;2023-07-20T12:00:00;36.04;23.14
70089;HTU21D;57460;47.134;19.888;2023-07-20T12:02:28;35.89;23.43
70089;HTU21D;57460;47.134;19.888;2023-07-20T12:04:57;35.88;24.67
70089;HTU21D;57460;47.134;19.888;2023-07-20T12:07:25;35.72;23.97
70089;HTU21D;57460;47.134;19.888;2023-07-20T12:10:08;35.79;24.47
70089;HTU21D;57460;47.134;19.888;2023-07-20T12:12:38;35.90;23.23
70089;HTU21D;57460;47.134;19.888;2023-07-20T12:15:15;35.72;23.40
70089;HTU21D;57460;47.134;19.888;2023-07-20T12:17:45;35.38;23.82
70089;HTU21D;57460;47.134;19.888;2023-07-20T12:20:11;35.28;23.45
70089;HTU21D;57460;47.134;19.888;2023-07-20T12:22:42;35.50;24.69
70089;HTU21D;57460;47.134;19.888;2023-07-20T12:25:09;35.39;24.78
70089;HTU21D;57460;47.134;19.888;2023-07-20T12:27:38;35.44;23.83
70089;HTU21D;57460;47.134;19.888;2023-07-20T12:30:07;35.30;23.11
70089;HTU21D;57460;47.134;19.888;2023-07-20T12:32:33;34.98;24.38
70089;HTU21D;57460;47.134;19.888;2023-07-20T12:34:59;34.98;23.56
70089;HTU21D;57460;47.134;19.888;2023-07-20T12:37:26;35.15;23.25
70089;HTU21D;57460;47.134;19.888;2023-07-20T12:39:52;35.01;24.24
70089;HTU21D;57460;47.134;19.888;2023-07-20T12:42:18;35.01;24.16
70089;HTU21D;57460;47.134;19.888;2023-07-20T12:44:44;35.09;22.28
70089;HTU21D;57460;47.134;19.888;2023-07-20T12:47:10;35.29;23.40
70089;HTU21D;57460;47.134;19.888;2023-07-20T12:49:35;35.26;23.38
70089;HTU21D;57460;47.134;19.888;2023-07-20T12:52:01;35.34;23.66
70089;HTU21D;57460;47.134;19.888;2023-07-20T12:54:27;35.36;23.81
70089;HTU21D;57460;47.134;19.888;2023-07-20T12:56:53;35.48;23.74
70089;HTU21D;57460;47.134;19.888;2023-07-20T12:59:18;35.49;22.45
70089;HTU21D;57460;47.134;19.888;2023-07-20T13:01:44;35.56;23.45
70089;HTU21D;57460;47.134;19.888;2023-07-20T13:04:10;35.28;23.21
70089;HTU21D;57460;47.134;19.888;2023-07-20T13:06:36;35.08;24.11
70089;HTU21D;57460;47.134;19.888;2023-07-20T13:09:02;34.94;24.57
70089;HTU21D;57460;47.134;19.888;2023-07-20T13:11:28;35.07;23.93
70089;HTU21D;57460;47.134;19.888;2023-07-20T13:13:56;34.94;23.66
70089;HTU21D;57460;47.134;19.888;2023-07-20T13:16:22;35.05;24.38
70089;HTU21D;57460;47.134;19.888;2023-07-20T13:18:48;34.67;25.39
70089;HTU21D;57460;47.134;19.888;2023-07-20T13:21:14;34.34;23.46
70089;HTU21D;57460;47.134;19.888;2023-07-20T13:23:39;34.62;25.00
70089;HTU21D;57460;47.134;19.888;2023-07-20T13:26:11;34.67;24.21
70089;HTU21D;57460;47.134;19.888;2023-07-20T13:28:36;34.67;24.41
70089;HTU21D;57460;47.134;19.888;2023-07-20T13:31:05;34.78;23.79
70089;HTU21D;57460;47.134;19.888;2023-07-20T13:33:36;34.78;21.63
70089;HTU21D;57460;47.134;19.888;2023-07-20T13:36:02;34.64;21.31
70089;HTU21D;57460;47.134;19.888;2023-07-20T13:38:31;34.64;22.66
70089;HTU21D;57460;47.134;19.888;2023-07-20T13:40:57;34.57;22.61
70089;HTU21D;57460;47.134;19.888;2023-07-20T13:43:22;34.73;22.63
70089;HTU21D;57460;47.134;19.888;2023-07-20T13:45:48;34.86;22.54
70089;HTU21D;57460;47.134;19.888;2023-07-20T13:48:17;34.86;22.59
70089;HTU21D;57460;47.134;19.888;2023-07-20T13:50:46;34.78;22.87
70089;HTU21D;57460;47.134;19.888;2023-07-20T13:53:12;34.94;24.04
70089;HTU21D;57460;47.134;19.888;2023-07-20T13:55:38;35.15;22.95
70089;HTU21D;57460;47.134;19.888;2023-07-20T13:58:04;35.05;21.96
70089;HTU21D;57460;47.134;19.888;2023-07-20T14:00:30;35.07;23.49
70089;HTU21D;57460;47.134;19.888;2023-07-20T14:02:59;35.16;22.63
70089;HTU21D;57460;47.134;19.888;2023-07-20T14:05:28;34.97;22.98
70089;HTU21D;57460;47.134;19.888;2023-07-20T14:07:53;34.76;23.43
70089;HTU21D;57460;47.134;19.888;2023-07-20T14:10:19;34.88;23.63
70089;HTU21D;57460;47.134;19.888;2023-07-20T14:12:45;34.92;23.01
70089;HTU21D;57460;47.134;19.888;2023-07-20T14:15:11;34.67;23.71
70089;HTU21D;57460;47.134;19.888;2023-07-20T14:17:37;34.59;23.85
70089;HTU21D;57460;47.134;19.888;2023-07-20T14:20:03;34.41;22.92
70089;HTU21D;57460;47.134;19.888;2023-07-20T14:22:31;34.24;24.47
70089;HTU21D;57460;47.134;19.888;2023-07-20T14:25:00;34.31;24.56
70089;HTU21D;57460;47.134;19.888;2023-07-20T14:27:26;34.40;24.37
70089;HTU21D;57460;47.134;19.888;2023-07-20T14:29:52;34.53;24.36
70089;HTU21D;57460;47.134;19.888;2023-07-20T14:32:19;34.61;23.78
70089;HTU21D;57460;47.134;19.888;2023-07-20T14:34:44;34.51;23.40
70089;HTU21D;57460;47.134;19.888;2023-07-20T14:37:10;34.39;23.83
70089;HTU21D;57460;47.134;19.888;2023-07-20T14:39:37;34.63;22.60
70089;HTU21D;57460;47.134;19.888;2023-07-20T14:42:05;34.57;23.36
70089;HTU21D;57460;47.134;19.888;2023-07-20T14:44:33;34.46;23.43
70089;HTU21D;57460;47.134;19.888;2023-07-20T14:46:59;34.35;21.68
70089;HTU21D;57460;47.134;19.888;2023-07-20T14:49:26;34.45;22.85
70089;HTU21D;57460;47.134;19.888;2023-07-20T14:51:52;34.46;22.88
70089;HTU21D;57460;47.134;19.888;2023-07-20T14:54:18;34.59;23.04
70089;HTU21D;57460;47.134;19.888;2023-07-20T14:56:51;34.39;21.71
70089;HTU21D;57460;47.134;19.888;2023-07-20T14:59:19;34.40;22.78
70089;HTU21D;57460;47.134;19.888;2023-07-20T15:01:45;34.42;22.45
70089;HTU21D;57460;47.134;19.888;2023-07-20T15:04:12;34.26;22.76
70089;HTU21D;57460;47.134;19.888;2023-07-20T15:06:37;34.12;23.22
70089;HTU21D;57460;47.134;19.888;2023-07-20T15:09:03;34.33;22.82
70089;HTU21D;57460;47.134;19.888;2023-07-20T15:11:29;34.25;23.38
70089;HTU21D;57460;47.134;19.888;2023-07-20T15:13:58;34.26;22.35
70089;HTU21D;57460;47.134;19.888;2023-07-20T15:16:24;34.16;22.46
70089;HTU21D;57460;47.134;19.888;2023-07-20T15:18:50;34.22;23.37
70089;HTU21D;57460;47.134;19.888;2023-07-20T15:21:16;34.15;23.44
70089;HTU21D;57460;47.134;19.888;2023-07-20T15:23:42;34.22;23.35